메인 페이지
METAR-TAF:

METAR-TAF

공항 :

코르도바, 아르헨티나

인헤니에로 아에로나르띠꼬 엠브로시오 L.V. 타라벨라 국제공항

위도: 31-19S, 경도: 064-13W, 고도: 484m

현재 날씨관측

예보는 56분 전, 18:00시(UTC)에 발표되었습니다.
9kt
온도 29°C
습도 48%
기압 1015 hPa
시정 10km 이상
고도 3000ft 상공 구름 많음

METAR: SACO 161800Z 09009KT 9999 BKN030 29/17 Q1015

시각: 15:56 (18:56 UTC)

예보

예보는 1 시간 56분 전, 17:00시(UTC)에 발표되었습니다.
예보 대상 시간: 16일 18시부터 17일 18시까지 (UTC)
북동10kt
시정 10km 이상
고도 3000ft 상공 구름 보통
고도 4000ft 상공 구름 조금, 적란운.
전환 중
17일 04시부터 17일 07시까지 (UTC)
15kt
시정: 7000m
고도 2500ft 상공 구름 많음
고도 4000ft 상공 구름 조금, 적란운.
뇌우, 비

TAF: SACO 161700Z 1618/1718 05010KT 9999 SCT030 FEW040CB TX25/1718Z TN17/1710Z BECMG 1704/1707 18015KT 7000 TSRA BKN025 FEW040CB

4,000개 이상의 공항 관측 자료 및 예보 (METAR 및 TAF 보고).

지도상에서 검색 가능한 기상관측소가 노란 점과 빨간 점으로 표시되어 있습니다.

기상관측소 명을 보려면 표시 위로 마우스를 이동하세요.

날씨 관측과 예보를 보려면 클릭하세요.

지도 변경 : 확대하려면 엑스 표시가 있는 녹색 버튼, 축소하려면 빼기 표시가 있는 녹색 버튼, 다음 페이지의 지도를 보려면 녹색 화살표를 클릭하세요.


METAR-TAF: